Time;durP1;ratioP1;P1;durP2;ratioP2;P2;SDS_P1;SDS_P2;PMS_P1;PMS_P2;Temp;Humidity;BMP_temperature;BMP_pressure;BME280_temperature;BME280_humidity;BME280_pressure;Samples;Min_cycle;Max_cycle;Signal;HPM_P1;HPM_P2
2023/04/15 00:01:01;;;;;;;7.95;3.47;;;;;;;;;;4908068;29;20040;-76
2023/04/15 00:03:27;;;;;;;7.20;3.67;;;;;;;;;;4906178;29;20414;-76
2023/04/15 00:05:52;;;;;;;3.72;2.83;;;;;;;;;;4904285;29;20398;-77
2023/04/15 00:08:18;;;;;;;5.43;2.80;;;;;;;;;;4906304;29;20095;-77
2023/04/15 00:10:45;;;;;;;6.38;3.13;;;;;;;;;;4906511;29;20032;-76
2023/04/15 00:13:10;;;;;;;4.82;3.15;;;;;;;;;;4907327;29;20023;-76
2023/04/15 00:15:36;;;;;;;4.13;3.35;;;;;;;;;;4905797;29;20020;-76
2023/04/15 00:18:02;;;;;;;5.80;3.40;;;;;;;;;;4907663;29;20126;-77
2023/04/15 00:20:27;;;;;;;6.85;4.10;;;;;;;;;;4906793;29;20055;-76
2023/04/15 00:22:52;;;;;;;4.70;3.85;;;;;;;;;;4909251;29;20039;-76
2023/04/15 00:25:18;;;;;;;6.10;4.20;;;;;;;;;;4908776;29;20419;-76
2023/04/15 00:27:44;;;;;;;5.40;3.75;;;;;;;;;;4909227;29;20031;-77
2023/04/15 00:30:10;;;;;;;3.72;3.03;;;;;;;;;;4907509;29;20028;-77
2023/04/15 00:32:35;;;;;;;7.30;3.53;;;;;;;;;;4906790;29;20025;-76
2023/04/15 00:35:01;;;;;;;6.28;4.20;;;;;;;;;;4890037;29;20106;-76
2023/04/15 00:37:26;;;;;;;7.13;3.53;;;;;;;;;;4905654;29;20016;-76
2023/04/15 00:39:51;;;;;;;7.18;3.63;;;;;;;;;;4907455;29;20096;-76
2023/04/15 00:42:17;;;;;;;6.78;3.30;;;;;;;;;;4906470;29;20020;-77
2023/04/15 00:44:42;;;;;;;5.57;3.78;;;;;;;;;;4891323;29;20032;-77
2023/04/15 00:47:07;;;;;;;5.05;3.67;;;;;;;;;;4905724;29;20509;-77
2023/04/15 00:49:33;;;;;;;6.32;4.32;;;;;;;;;;4896305;29;20016;-77
2023/04/15 00:51:58;;;;;;;5.10;4.28;;;;;;;;;;4907129;29;20115;-77
2023/04/15 00:54:24;;;;;;;8.75;5.47;;;;;;;;;;4908326;29;20095;-77
2023/04/15 00:56:49;;;;;;;7.38;5.00;;;;;;;;;;4908442;29;20531;-77
2023/04/15 00:59:16;;;;;;;5.13;3.85;;;;;;;;;;4907260;29;20552;-77
2023/04/15 01:01:42;;;;;;;5.65;3.60;;;;;;;;;;4907369;29;20028;-76
2023/04/15 01:04:10;;;;;;;8.88;4.25;;;;;;;;;;4906115;29;20048;-76
2023/04/15 01:06:35;;;;;;;12.18;8.55;;;;;;;;;;4896873;29;20023;-77
2023/04/15 01:09:01;;;;;;;11.13;6.88;;;;;;;;;;4904988;29;20040;-76
2023/04/15 01:11:26;;;;;;;7.13;4.18;;;;;;;;;;4893134;29;20023;-76
2023/04/15 01:13:52;;;;;;;6.95;3.17;;;;;;;;;;4904631;29;20682;-76
2023/04/15 01:16:18;;;;;;;3.95;2.85;;;;;;;;;;4893468;29;20024;-76
2023/04/15 01:18:43;;;;;;;4.65;2.95;;;;;;;;;;4905309;29;20024;-76
2023/04/15 01:21:09;;;;;;;3.65;2.63;;;;;;;;;;4905081;29;20043;-75
2023/04/15 01:23:36;;;;;;;3.83;2.70;;;;;;;;;;4906396;29;20035;-76
2023/04/15 01:26:02;;;;;;;3.63;2.38;;;;;;;;;;4904544;29;20505;-75
2023/04/15 01:28:27;;;;;;;3.05;2.28;;;;;;;;;;4905805;29;20068;-73
2023/04/15 01:31:06;;;;;;;4.60;2.95;;;;;;;;;;4903931;29;20024;-75
2023/04/15 01:33:31;;;;;;;3.60;2.10;;;;;;;;;;4905258;29;20027;-75
2023/04/15 01:35:56;;;;;;;4.80;2.42;;;;;;;;;;4904167;29;20023;-76
2023/04/15 01:38:23;;;;;;;3.78;3.17;;;;;;;;;;4888773;29;20031;-76
2023/04/15 01:40:48;;;;;;;3.13;2.60;;;;;;;;;;4904844;29;20036;-75
2023/04/15 01:43:14;;;;;;;2.17;1.95;;;;;;;;;;4904895;29;20032;-76
2023/04/15 01:45:39;;;;;;;3.30;2.30;;;;;;;;;;4904808;29;20391;-76
2023/04/15 01:48:05;;;;;;;5.07;3.03;;;;;;;;;;4903547;29;20023;-75
2023/04/15 01:50:31;;;;;;;4.78;2.58;;;;;;;;;;4905512;29;20031;-76
2023/04/15 01:52:57;;;;;;;4.75;2.60;;;;;;;;;;4903857;29;20485;-75
2023/04/15 01:55:23;;;;;;;3.20;2.58;;;;;;;;;;4905463;29;20020;-76
2023/04/15 01:57:48;;;;;;;3.65;2.65;;;;;;;;;;4904083;29;20091;-76
2023/04/15 02:00:14;;;;;;;3.05;2.55;;;;;;;;;;4905102;29;20465;-76
2023/04/15 02:02:39;;;;;;;3.95;2.80;;;;;;;;;;4904008;29;20031;-76
2023/04/15 02:05:04;;;;;;;4.78;2.53;;;;;;;;;;4891788;29;20593;-75
2023/04/15 02:07:31;;;;;;;4.22;2.70;;;;;;;;;;4904714;29;20510;-76
2023/04/15 02:09:56;;;;;;;6.50;3.00;;;;;;;;;;4904743;29;20032;-77
2023/04/15 02:12:21;;;;;;;5.93;2.63;;;;;;;;;;4898443;29;20021;-77
2023/04/15 02:14:47;;;;;;;3.70;2.83;;;;;;;;;;4877291;29;20033;-77
2023/04/15 02:17:12;;;;;;;2.92;2.38;;;;;;;;;;4907096;29;20031;-77
2023/04/15 02:19:39;;;;;;;10.10;9.07;;;;;;;;;;4904316;29;20099;-77
2023/04/15 02:22:06;;;;;;;10.20;9.18;;;;;;;;;;4905705;29;20026;-76
2023/04/15 02:24:31;;;;;;;6.80;5.43;;;;;;;;;;4899194;29;20399;-76
2023/04/15 02:26:56;;;;;;;5.03;4.53;;;;;;;;;;4897909;29;20043;-76
2023/04/15 02:29:22;;;;;;;3.85;3.08;;;;;;;;;;4905639;29;20024;-77
2023/04/15 02:31:48;;;;;;;4.03;2.70;;;;;;;;;;4900165;29;21062;-77
2023/04/15 02:34:13;;;;;;;2.67;2.28;;;;;;;;;;4891687;29;20498;-78
2023/04/15 02:36:39;;;;;;;4.05;2.10;;;;;;;;;;4906566;29;20052;-77
2023/04/15 02:39:04;;;;;;;3.50;2.70;;;;;;;;;;4906351;29;20079;-77
2023/04/15 02:41:30;;;;;;;5.63;2.00;;;;;;;;;;4904735;29;20020;-77
2023/04/15 02:43:55;;;;;;;2.58;1.70;;;;;;;;;;4906757;29;20582;-77
2023/04/15 02:46:21;;;;;;;3.80;2.58;;;;;;;;;;4887355;29;20020;-77
2023/04/15 02:48:47;;;;;;;4.25;2.65;;;;;;;;;;4893742;29;20025;-77
2023/04/15 02:51:13;;;;;;;8.35;4.60;;;;;;;;;;4890439;29;20020;-77
2023/04/15 02:53:39;;;;;;;8.75;4.60;;;;;;;;;;4904509;29;20545;-76
2023/04/15 02:56:05;;;;;;;5.28;3.20;;;;;;;;;;4906453;29;20031;-77
2023/04/15 02:58:30;;;;;;;3.80;1.70;;;;;;;;;;4908541;29;20024;-77
2023/04/15 03:00:56;;;;;;;5.20;4.63;;;;;;;;;;4909876;29;20012;-77
2023/04/15 03:03:21;;;;;;;6.43;4.95;;;;;;;;;;4891633;29;20035;-77
2023/04/15 03:05:47;;;;;;;6.68;5.82;;;;;;;;;;4909729;29;20020;-77
2023/04/15 03:08:13;;;;;;;5.22;3.70;;;;;;;;;;4908636;29;20012;-77
2023/04/15 03:10:39;;;;;;;130.93;38.97;;;;;;;;;;4910692;29;20102;-77
2023/04/15 03:13:04;;;;;;;74.75;21.70;;;;;;;;;;4908911;29;20024;-77
2023/04/15 03:15:29;;;;;;;96.63;33.85;;;;;;;;;;4909433;29;20048;-76
2023/04/15 03:17:55;;;;;;;50.58;19.10;;;;;;;;;;4895105;29;20040;-76
2023/04/15 03:20:20;;;;;;;5.18;2.90;;;;;;;;;;4908604;29;20027;-76
2023/04/15 03:22:45;;;;;;;7.47;3.20;;;;;;;;;;4909108;29;20024;-76
2023/04/15 03:25:11;;;;;;;7.53;3.67;;;;;;;;;;4908627;29;20024;-76
2023/04/15 03:27:37;;;;;;;27.38;16.15;;;;;;;;;;4883076;29;20024;-77
2023/04/15 03:30:02;;;;;;;18.60;11.70;;;;;;;;;;4888703;29;20032;-77
2023/04/15 03:32:27;;;;;;;12.85;7.80;;;;;;;;;;4893115;29;20024;-77
2023/04/15 03:34:53;;;;;;;15.15;7.53;;;;;;;;;;4908043;29;20079;-77
2023/04/15 03:37:18;;;;;;;11.93;5.97;;;;;;;;;;4909185;29;20032;-77
2023/04/15 03:39:43;;;;;;;7.68;5.05;;;;;;;;;;4907736;29;20147;-77
2023/04/15 03:42:09;;;;;;;4.80;3.00;;;;;;;;;;4904924;29;20013;-77
2023/04/15 03:44:34;;;;;;;4.95;2.83;;;;;;;;;;4881814;29;20059;-76
2023/04/15 03:46:59;;;;;;;6.80;3.17;;;;;;;;;;4891042;29;20020;-77
2023/04/15 03:49:24;;;;;;;4.60;2.70;;;;;;;;;;4893745;29;20103;-77
2023/04/15 03:51:50;;;;;;;5.50;2.45;;;;;;;;;;4908037;29;20063;-76
2023/04/15 03:54:15;;;;;;;3.40;2.30;;;;;;;;;;4907770;29;20071;-77
2023/04/15 03:56:41;;;;;;;6.35;2.75;;;;;;;;;;4900598;29;20025;-77
2023/04/15 03:59:06;;;;;;;4.45;3.65;;;;;;;;;;4902778;29;20486;-77
2023/04/15 04:01:31;;;;;;;7.70;5.05;;;;;;;;;;4907553;29;20016;-78
2023/04/15 04:03:57;;;;;;;5.72;3.38;;;;;;;;;;4897598;29;20502;-76
2023/04/15 04:06:22;;;;;;;5.28;3.22;;;;;;;;;;4904794;29;20017;-78
2023/04/15 04:08:47;;;;;;;4.50;2.90;;;;;;;;;;4907997;29;20379;-77
2023/04/15 04:11:12;;;;;;;2.97;2.63;;;;;;;;;;4907013;29;20031;-77
2023/04/15 04:13:38;;;;;;;3.45;2.60;;;;;;;;;;4909187;29;20550;-77
2023/04/15 04:16:03;;;;;;;5.45;3.10;;;;;;;;;;4908128;29;20052;-77
2023/04/15 04:18:30;;;;;;;4.18;3.38;;;;;;;;;;4908672;29;20447;-77
2023/04/15 04:20:55;;;;;;;13.63;10.23;;;;;;;;;;4908369;29;20028;-77
2023/04/15 04:23:20;;;;;;;10.40;6.50;;;;;;;;;;4907410;29;20088;-77
2023/04/15 04:25:46;;;;;;;7.15;4.05;;;;;;;;;;4893988;29;20060;-78
2023/04/15 04:28:11;;;;;;;5.20;3.40;;;;;;;;;;4891774;29;20032;-77
2023/04/15 04:30:37;;;;;;;4.10;2.95;;;;;;;;;;4911827;29;20566;-77
2023/04/15 04:38:12;;;;;;;3.88;2.42;;;;;;;;;;5387484;23;20059;-92
2023/04/15 04:40:37;;;;;;;28.80;11.20;;;;;;;;;;4946882;28;20027;-91
2023/04/15 04:43:03;;;;;;;43.05;20.60;;;;;;;;;;4956455;28;20075;-85
2023/04/15 04:45:28;;;;;;;23.63;14.02;;;;;;;;;;4948933;28;20018;-90
2023/04/15 04:47:53;;;;;;;3.37;2.73;;;;;;;;;;4960851;28;20011;-88
2023/04/15 04:50:18;;;;;;;3.33;3.00;;;;;;;;;;4941209;28;20484;-85
2023/04/15 04:52:44;;;;;;;3.30;3.00;;;;;;;;;;4946244;29;20029;-90
2023/04/15 04:55:09;;;;;;;3.70;3.10;;;;;;;;;;4961026;28;20298;-87
2023/04/15 04:57:34;;;;;;;5.45;3.30;;;;;;;;;;4949034;28;20472;-87
2023/04/15 05:00:00;;;;;;;3.53;3.20;;;;;;;;;;4947434;28;20547;-85
2023/04/15 05:02:26;;;;;;;4.43;3.40;;;;;;;;;;4947877;28;20022;-94
2023/04/15 05:04:53;;;;;;;6.67;3.03;;;;;;;;;;4960159;28;20035;-83
2023/04/15 05:07:19;;;;;;;4.03;3.50;;;;;;;;;;4958887;28;21558;-80
2023/04/15 05:09:45;;;;;;;5.90;4.45;;;;;;;;;;4959482;28;20824;-81
2023/04/15 05:12:13;;;;;;;7.80;6.05;;;;;;;;;;4956528;28;20034;-81
2023/04/15 05:14:39;;;;;;;6.63;4.85;;;;;;;;;;4932744;29;20070;-82
2023/04/15 05:17:04;;;;;;;4.40;4.00;;;;;;;;;;4961334;28;20109;-80
2023/04/15 05:19:29;;;;;;;3.70;3.40;;;;;;;;;;4940130;28;20043;-80
2023/04/15 05:21:55;;;;;;;5.13;2.90;;;;;;;;;;4958194;28;20022;-81
2023/04/15 05:24:21;;;;;;;3.13;2.40;;;;;;;;;;4962793;28;20025;-81
2023/04/15 05:26:46;;;;;;;3.80;2.78;;;;;;;;;;4946169;28;20026;-81
2023/04/15 05:29:11;;;;;;;2.88;2.67;;;;;;;;;;4933265;28;20026;-81
2023/04/15 05:31:37;;;;;;;4.93;4.53;;;;;;;;;;4957673;28;20025;-80
2023/04/15 05:34:02;;;;;;;6.00;5.32;;;;;;;;;;4957274;28;20576;-80
2023/04/15 05:36:27;;;;;;;7.82;4.28;;;;;;;;;;4959962;28;20027;-80
2023/04/15 05:38:53;;;;;;;5.23;3.17;;;;;;;;;;4962173;28;20116;-79
2023/04/15 05:41:18;;;;;;;3.97;2.80;;;;;;;;;;4961542;28;20258;-80
2023/04/15 05:43:43;;;;;;;4.93;4.53;;;;;;;;;;4950744;28;20059;-81
2023/04/15 05:46:09;;;;;;;4.13;3.83;;;;;;;;;;4943058;28;20073;-82
2023/04/15 05:48:34;;;;;;;6.77;4.20;;;;;;;;;;4943991;28;20023;-81
2023/04/15 05:51:00;;;;;;;4.25;3.85;;;;;;;;;;4929090;28;20265;-79
2023/04/15 05:53:25;;;;;;;3.80;2.85;;;;;;;;;;4955719;28;20026;-80
2023/04/15 05:55:51;;;;;;;3.22;2.92;;;;;;;;;;4957978;28;20468;-81
2023/04/15 05:58:16;;;;;;;9.77;3.05;;;;;;;;;;4962368;28;20042;-79
2023/04/15 06:00:42;;;;;;;7.22;2.20;;;;;;;;;;4961458;28;20052;-80
2023/04/15 06:03:08;;;;;;;3.92;2.25;;;;;;;;;;4951577;28;20022;-80
2023/04/15 06:05:33;;;;;;;3.45;2.35;;;;;;;;;;4951270;28;20023;-80
2023/04/15 06:07:58;;;;;;;2.42;2.03;;;;;;;;;;4952577;28;20117;-79
2023/04/15 06:10:24;;;;;;;3.27;2.20;;;;;;;;;;4928929;28;20030;-79
2023/04/15 06:12:51;;;;;;;2.17;2.00;;;;;;;;;;4957983;28;20320;-80
2023/04/15 06:15:16;;;;;;;2.67;2.33;;;;;;;;;;4960253;28;20033;-80
2023/04/15 06:17:42;;;;;;;2.35;1.92;;;;;;;;;;4962393;28;20039;-81
2023/04/15 06:20:07;;;;;;;5.28;2.40;;;;;;;;;;4954675;28;20504;-80
2023/04/15 06:22:33;;;;;;;3.38;2.95;;;;;;;;;;4945291;28;20027;-82
2023/04/15 06:24:58;;;;;;;4.53;3.22;;;;;;;;;;4943936;28;20121;-81
2023/04/15 06:27:23;;;;;;;3.90;2.72;;;;;;;;;;4960864;28;20037;-80
2023/04/15 06:29:49;;;;;;;4.20;2.88;;;;;;;;;;4939230;28;20527;-80
2023/04/15 06:32:14;;;;;;;3.70;2.15;;;;;;;;;;4964496;28;20030;-80
2023/04/15 06:34:39;;;;;;;1.98;1.80;;;;;;;;;;4965414;28;20440;-80
2023/04/15 06:37:05;;;;;;;2.20;2.00;;;;;;;;;;4962873;28;20046;-79
2023/04/15 06:39:32;;;;;;;2.33;1.83;;;;;;;;;;4963775;28;20055;-79
2023/04/15 06:41:57;;;;;;;2.08;1.65;;;;;;;;;;4946419;28;20022;-80
2023/04/15 06:44:22;;;;;;;4.10;1.80;;;;;;;;;;4955660;28;20489;-80
2023/04/15 06:46:48;;;;;;;1.87;1.33;;;;;;;;;;4957698;28;20023;-79
2023/04/15 06:49:13;;;;;;;2.22;1.48;;;;;;;;;;4956875;28;20205;-80
2023/04/15 06:51:38;;;;;;;3.07;1.63;;;;;;;;;;4945618;28;20377;-79
2023/04/15 06:54:05;;;;;;;1.73;1.63;;;;;;;;;;4963927;28;20490;-79
2023/04/15 06:56:33;;;;;;;3.40;1.60;;;;;;;;;;4964732;28;20023;-79
2023/04/15 06:58:58;;;;;;;3.80;1.70;;;;;;;;;;4964207;28;20522;-79
2023/04/15 07:01:24;;;;;;;1.70;1.43;;;;;;;;;;4964495;28;20018;-79
2023/04/15 07:03:49;;;;;;;1.77;1.50;;;;;;;;;;4963963;28;20046;-79
2023/04/15 07:06:14;;;;;;;2.20;1.53;;;;;;;;;;4949750;28;20115;-79
2023/04/15 07:08:40;;;;;;;1.53;1.27;;;;;;;;;;4957760;28;20030;-79
2023/04/15 07:11:06;;;;;;;2.28;1.25;;;;;;;;;;4961475;28;20035;-79
2023/04/15 07:13:31;;;;;;;2.70;1.42;;;;;;;;;;4942264;28;20031;-78
2023/04/15 07:15:57;;;;;;;5.15;1.30;;;;;;;;;;4956909;28;20167;-79
2023/04/15 07:18:22;;;;;;;1.88;1.50;;;;;;;;;;4960662;28;20125;-78
2023/04/15 07:20:47;;;;;;;2.67;1.47;;;;;;;;;;4960734;28;20034;-77
2023/04/15 07:23:13;;;;;;;2.67;1.40;;;;;;;;;;4955869;28;20015;-77
2023/04/15 07:25:38;;;;;;;2.63;2.17;;;;;;;;;;4953728;28;20277;-78
2023/04/15 07:28:03;;;;;;;3.17;1.75;;;;;;;;;;4961282;28;20274;-77
2023/04/15 07:30:29;;;;;;;3.20;1.70;;;;;;;;;;4942572;28;20033;-79
2023/04/15 07:32:54;;;;;;;3.78;1.60;;;;;;;;;;4943549;28;20162;-80
2023/04/15 07:35:20;;;;;;;3.78;1.80;;;;;;;;;;4963125;28;20035;-81
2023/04/15 07:37:45;;;;;;;2.05;1.65;;;;;;;;;;4961144;28;20038;-80
2023/04/15 07:40:11;;;;;;;3.08;1.60;;;;;;;;;;4963219;28;20035;-79
2023/04/15 07:42:37;;;;;;;2.60;1.45;;;;;;;;;;4936630;28;20402;-80
2023/04/15 07:45:02;;;;;;;4.78;1.60;;;;;;;;;;4939806;28;20022;-80
2023/04/15 07:47:27;;;;;;;8.07;1.63;;;;;;;;;;4930348;28;20035;-78
2023/04/15 07:49:53;;;;;;;2.55;1.50;;;;;;;;;;4945469;28;20022;-78
2023/04/15 07:52:18;;;;;;;4.80;1.27;;;;;;;;;;4963255;28;20739;-78
2023/04/15 07:54:44;;;;;;;3.95;1.58;;;;;;;;;;4960627;28;20281;-80
2023/04/15 07:57:10;;;;;;;1.85;1.40;;;;;;;;;;4952876;28;20054;-78
2023/04/15 07:59:35;;;;;;;1.80;1.13;;;;;;;;;;4945176;28;20035;-78
2023/04/15 08:02:01;;;;;;;2.40;1.40;;;;;;;;;;4961678;28;20517;-80
2023/04/15 08:04:27;;;;;;;3.40;1.60;;;;;;;;;;4960735;28;20033;-80
2023/04/15 08:06:52;;;;;;;2.65;1.60;;;;;;;;;;4963005;28;20090;-79
2023/04/15 08:09:18;;;;;;;3.72;1.42;;;;;;;;;;4962956;28;20034;-80
2023/04/15 08:11:43;;;;;;;3.03;1.10;;;;;;;;;;4945506;28;20523;-80
2023/04/15 08:14:09;;;;;;;5.82;1.40;;;;;;;;;;4962558;28;20033;-81
2023/04/15 08:16:34;;;;;;;1.98;1.23;;;;;;;;;;4963133;28;20014;-80
2023/04/15 08:19:00;;;;;;;1.88;1.20;;;;;;;;;;4963398;28;20034;-80
2023/04/15 08:21:26;;;;;;;2.78;1.48;;;;;;;;;;4959985;28;20081;-80
2023/04/15 08:23:52;;;;;;;1.92;1.20;;;;;;;;;;4954394;28;20023;-77
2023/04/15 08:26:17;;;;;;;2.10;1.20;;;;;;;;;;4952713;28;20022;-79
2023/04/15 08:28:43;;;;;;;2.63;0.90;;;;;;;;;;4956665;28;20051;-82
2023/04/15 08:31:09;;;;;;;2.88;0.80;;;;;;;;;;4930947;28;20031;-79
2023/04/15 08:33:34;;;;;;;2.25;0.95;;;;;;;;;;4957131;28;20081;-79
2023/04/15 08:36:00;;;;;;;2.65;0.93;;;;;;;;;;4931927;29;20027;-79
2023/04/15 08:38:25;;;;;;;2.50;1.30;;;;;;;;;;4955763;28;20059;-79
2023/04/15 08:40:51;;;;;;;2.45;1.13;;;;;;;;;;4961496;28;20207;-78
2023/04/15 08:43:27;;;;;;;1.25;0.95;;;;;;;;;;4961833;28;20039;-79
2023/04/15 08:45:52;;;;;;;2.20;0.70;;;;;;;;;;4956445;28;20031;-79
2023/04/15 08:48:18;;;;;;;2.20;1.02;;;;;;;;;;4925885;29;20019;-80
2023/04/15 08:50:44;;;;;;;2.17;0.82;;;;;;;;;;4956526;28;20019;-78
2023/04/15 08:53:10;;;;;;;1.95;1.00;;;;;;;;;;4960955;28;20174;-79
2023/04/15 08:55:38;;;;;;;3.67;1.05;;;;;;;;;;4961190;28;20015;-79
2023/04/15 08:58:04;;;;;;;2.72;0.80;;;;;;;;;;4961324;28;20058;-79
2023/04/15 09:00:31;;;;;;;1.67;1.02;;;;;;;;;;4943575;28;20019;-78
2023/04/15 09:02:57;;;;;;;2.13;0.75;;;;;;;;;;4942970;28;20030;-79
2023/04/15 09:05:23;;;;;;;1.73;0.90;;;;;;;;;;4959984;28;20023;-78
2023/04/15 09:07:49;;;;;;;2.27;0.80;;;;;;;;;;4950906;28;20484;-79
2023/04/15 09:10:14;;;;;;;2.30;0.70;;;;;;;;;;4953807;28;20353;-79
2023/04/15 09:12:40;;;;;;;2.13;0.90;;;;;;;;;;4960652;28;20193;-78
2023/04/15 09:15:07;;;;;;;2.22;0.80;;;;;;;;;;4960792;28;20396;-79
2023/04/15 09:17:33;;;;;;;2.38;0.95;;;;;;;;;;4936923;28;20027;-78
2023/04/15 09:20:27;;;;;;;2.78;1.00;;;;;;;;;;4954094;28;20400;-78
2023/04/15 09:22:53;;;;;;;2.20;1.10;;;;;;;;;;4943312;28;20082;-79
2023/04/15 09:25:21;;;;;;;2.05;1.00;;;;;;;;;;4943279;28;20526;-78
2023/04/15 09:28:00;;;;;;;1.10;0.80;;;;;;;;;;4959014;28;20070;-79
2023/04/15 09:30:27;;;;;;;2.05;0.80;;;;;;;;;;4955229;28;20100;-78
2023/04/15 09:32:52;;;;;;;4.35;1.08;;;;;;;;;;4950399;28;20027;-78
2023/04/15 09:35:18;;;;;;;1.87;0.73;;;;;;;;;;4956747;28;20097;-80
2023/04/15 09:37:43;;;;;;;3.30;0.75;;;;;;;;;;4960083;28;20286;-80
2023/04/15 09:40:09;;;;;;;0.90;0.65;;;;;;;;;;4959483;28;20444;-79
2023/04/15 09:42:35;;;;;;;2.00;0.90;;;;;;;;;;4942167;28;20045;-79
2023/04/15 09:45:07;;;;;;;2.22;0.90;;;;;;;;;;4959323;28;20092;-78
2023/04/15 09:47:33;;;;;;;1.33;0.80;;;;;;;;;;4939793;28;20023;-79
2023/04/15 09:49:59;;;;;;;2.63;0.90;;;;;;;;;;4948688;28;20023;-79
2023/04/15 09:52:24;;;;;;;2.30;0.80;;;;;;;;;;4959914;28;20262;-79
2023/04/15 09:54:52;;;;;;;2.70;1.00;;;;;;;;;;4942963;28;20061;-79
2023/04/15 09:57:17;;;;;;;2.17;0.68;;;;;;;;;;4943151;28;20054;-80
2023/04/15 09:59:42;;;;;;;2.40;0.60;;;;;;;;;;4943706;28;20154;-80
2023/04/15 10:02:08;;;;;;;3.38;0.77;;;;;;;;;;4959824;28;20050;-79
2023/04/15 10:04:35;;;;;;;1.33;0.85;;;;;;;;;;4929980;28;20019;-80
2023/04/15 10:07:02;;;;;;;2.05;0.90;;;;;;;;;;4958667;28;20030;-79
2023/04/15 10:09:27;;;;;;;1.35;0.90;;;;;;;;;;4948983;28;20390;-80
2023/04/15 10:11:53;;;;;;;2.97;1.25;;;;;;;;;;4957458;28;20019;-80
2023/04/15 10:14:19;;;;;;;1.73;1.00;;;;;;;;;;4926710;28;20467;-79
2023/04/15 10:16:47;;;;;;;3.60;1.00;;;;;;;;;;4946389;28;20106;-80
2023/04/15 10:19:15;;;;;;;3.35;0.93;;;;;;;;;;4959342;28;20105;-81
2023/04/15 10:21:40;;;;;;;1.88;0.82;;;;;;;;;;4958792;28;20125;-83
2023/04/15 10:24:06;;;;;;;1.75;1.15;;;;;;;;;;4957733;28;20097;-82
2023/04/15 10:26:31;;;;;;;4.38;0.65;;;;;;;;;;4959662;28;20655;-80
2023/04/15 10:28:57;;;;;;;1.90;0.68;;;;;;;;;;4945977;28;20512;-82
2023/04/15 10:31:22;;;;;;;1.50;0.70;;;;;;;;;;4959790;28;20343;-81
2023/04/15 10:33:48;;;;;;;3.50;1.13;;;;;;;;;;4958814;28;20019;-83
2023/04/15 10:36:14;;;;;;;2.08;0.82;;;;;;;;;;4959515;28;20687;-82
2023/04/15 10:38:43;;;;;;;2.90;0.82;;;;;;;;;;4941848;28;20126;-80
2023/04/15 10:41:13;;;;;;;3.22;0.80;;;;;;;;;;4959702;28;20026;-79
2023/04/15 10:43:38;;;;;;;3.00;0.75;;;;;;;;;;4960163;28;20052;-78
2023/04/15 10:46:06;;;;;;;1.73;0.68;;;;;;;;;;4957738;28;20386;-78
2023/04/15 10:48:32;;;;;;;1.67;0.73;;;;;;;;;;4953411;28;20042;-78
2023/04/15 10:51:00;;;;;;;2.40;0.73;;;;;;;;;;4957085;28;20019;-81
2023/04/15 10:53:29;;;;;;;1.35;0.80;;;;;;;;;;4942498;28;20031;-80
2023/04/15 10:55:56;;;;;;;2.05;0.90;;;;;;;;;;4957950;28;20156;-80
2023/04/15 10:58:24;;;;;;;2.53;0.82;;;;;;;;;;4960015;28;20400;-80
2023/04/15 11:00:53;;;;;;;1.92;0.90;;;;;;;;;;4942332;28;20100;-81
2023/04/15 11:03:37;;;;;;;1.88;0.75;;;;;;;;;;4959449;28;20029;-81
2023/04/15 11:06:03;;;;;;;1.45;0.60;;;;;;;;;;4959352;28;20057;-80
2023/04/15 11:09:08;;;;;;;1.83;0.70;;;;;;;;;;4959473;28;20015;-80
2023/04/15 11:11:52;;;;;;;2.20;0.70;;;;;;;;;;4865373;29;20033;-80
2023/04/15 11:14:17;;;;;;;2.95;0.68;;;;;;;;;;4862541;29;20105;-81
2023/04/15 11:16:45;;;;;;;3.08;1.00;;;;;;;;;;4910778;28;20039;-79
2023/04/15 11:19:11;;;;;;;3.13;0.75;;;;;;;;;;4963277;28;20277;-80
2023/04/15 11:21:36;;;;;;;1.15;0.68;;;;;;;;;;4931992;28;20374;-80
2023/04/15 11:24:02;;;;;;;1.13;0.70;;;;;;;;;;4962946;28;20026;-80
2023/04/15 11:26:27;;;;;;;3.03;0.98;;;;;;;;;;4961838;28;20026;-80
2023/04/15 11:28:53;;;;;;;1.13;0.80;;;;;;;;;;4955284;28;20019;-80
2023/04/15 11:31:18;;;;;;;1.95;0.80;;;;;;;;;;4930463;28;20795;-80
2023/04/15 11:33:45;;;;;;;1.20;0.60;;;;;;;;;;4937181;28;20031;-82
2023/04/15 11:36:11;;;;;;;1.35;0.50;;;;;;;;;;4952792;28;20369;-82
2023/04/15 11:38:36;;;;;;;1.30;0.70;;;;;;;;;;4961559;28;20154;-82
2023/04/15 11:41:02;;;;;;;1.63;0.63;;;;;;;;;;4940943;28;20117;-82
2023/04/15 11:43:30;;;;;;;1.42;0.88;;;;;;;;;;4960852;28;20094;-82
2023/04/15 11:46:00;;;;;;;3.20;0.80;;;;;;;;;;4951318;28;20500;-81
2023/04/15 11:48:26;;;;;;;1.70;0.85;;;;;;;;;;4935747;29;20815;-83
2023/04/15 11:51:02;;;;;;;2.20;0.80;;;;;;;;;;4938240;28;20033;-83
2023/04/15 11:53:44;;;;;;;1.55;0.85;;;;;;;;;;4960444;28;20026;-81
2023/04/15 11:56:15;;;;;;;1.90;0.80;;;;;;;;;;4944367;28;20169;-81
2023/04/15 11:58:42;;;;;;;3.53;0.90;;;;;;;;;;4962468;28;20038;-82
2023/04/15 12:01:07;;;;;;;1.73;1.10;;;;;;;;;;4960358;28;20091;-82
2023/04/15 12:03:44;;;;;;;4.05;1.00;;;;;;;;;;4934804;29;20532;-82
2023/04/15 12:06:12;;;;;;;2.13;0.80;;;;;;;;;;4943412;28;20023;-83
2023/04/15 12:08:47;;;;;;;3.03;0.88;;;;;;;;;;4959067;28;20126;-82
2023/04/15 12:11:12;;;;;;;1.63;1.08;;;;;;;;;;4962107;28;20797;-81
2023/04/15 12:13:38;;;;;;;2.03;0.73;;;;;;;;;;4962116;28;20014;-84
2023/04/15 12:16:03;;;;;;;0.67;0.60;;;;;;;;;;4961472;28;20027;-82
2023/04/15 12:18:28;;;;;;;2.13;0.70;;;;;;;;;;4944107;28;20294;-83
2023/04/15 12:20:54;;;;;;;2.60;0.77;;;;;;;;;;4942394;28;20489;-82
2023/04/15 12:23:19;;;;;;;1.45;0.65;;;;;;;;;;4948356;28;20055;-82
2023/04/15 12:25:50;;;;;;;1.73;0.60;;;;;;;;;;4930717;28;20050;-82
2023/04/15 12:28:16;;;;;;;1.40;0.68;;;;;;;;;;4943706;28;20558;-82
2023/04/15 12:30:51;;;;;;;2.38;0.90;;;;;;;;;;4957095;28;20027;-83
2023/04/15 12:33:16;;;;;;;1.83;0.80;;;;;;;;;;4939456;28;20067;-81
2023/04/15 12:35:42;;;;;;;2.80;0.90;;;;;;;;;;4956133;28;20022;-84
2023/04/15 12:38:09;;;;;;;1.83;0.67;;;;;;;;;;4960743;28;20571;-84
2023/04/15 12:40:35;;;;;;;1.90;1.05;;;;;;;;;;4961687;28;20751;-82
2023/04/15 12:43:00;;;;;;;1.33;0.65;;;;;;;;;;4961370;28;20026;-85
2023/04/15 12:45:26;;;;;;;1.00;0.60;;;;;;;;;;4961048;28;20030;-84
2023/04/15 12:47:51;;;;;;;1.50;0.70;;;;;;;;;;4955701;28;20291;-82
2023/04/15 12:50:17;;;;;;;2.83;0.63;;;;;;;;;;4952793;28;20031;-83
2023/04/15 12:52:42;;;;;;;1.88;0.60;;;;;;;;;;4961560;28;20027;-84
2023/04/15 12:55:08;;;;;;;2.38;0.80;;;;;;;;;;4952377;28;20042;-84
2023/04/15 12:57:33;;;;;;;1.83;0.75;;;;;;;;;;4956487;28;20098;-83
2023/04/15 12:59:58;;;;;;;1.55;0.77;;;;;;;;;;4959406;28;20501;-87
2023/04/15 13:02:25;;;;;;;1.73;0.90;;;;;;;;;;4959626;28;20141;-82
2023/04/15 13:04:51;;;;;;;2.38;0.60;;;;;;;;;;4960980;28;20109;-85
2023/04/15 13:07:16;;;;;;;2.03;0.93;;;;;;;;;;4961366;28;20093;-83
2023/04/15 13:09:41;;;;;;;3.92;0.82;;;;;;;;;;4943656;28;20270;-83
2023/04/15 13:12:07;;;;;;;3.95;1.00;;;;;;;;;;4960946;28;20058;-86
2023/04/15 13:14:32;;;;;;;1.50;0.70;;;;;;;;;;4958653;28;20038;-83
2023/04/15 13:16:58;;;;;;;5.60;1.10;;;;;;;;;;4960225;28;20871;-84
2023/04/15 13:19:23;;;;;;;3.70;0.90;;;;;;;;;;4942842;28;20062;-85
2023/04/15 13:21:48;;;;;;;1.40;0.80;;;;;;;;;;4939389;29;20030;-84
2023/04/15 13:24:13;;;;;;;0.82;0.70;;;;;;;;;;4933807;28;20038;-84
2023/04/15 13:26:39;;;;;;;1.20;0.70;;;;;;;;;;4960214;28;20027;-83
2023/04/15 13:29:04;;;;;;;2.10;0.70;;;;;;;;;;4959109;28;20018;-83
2023/04/15 13:31:29;;;;;;;1.45;0.85;;;;;;;;;;4958487;28;20018;-87
2023/04/15 13:33:56;;;;;;;1.35;0.80;;;;;;;;;;4961226;28;20014;-86
2023/04/15 13:36:21;;;;;;;2.08;0.80;;;;;;;;;;4936306;29;20433;-83
2023/04/15 13:38:46;;;;;;;2.08;0.50;;;;;;;;;;4940810;28;20136;-82
2023/04/15 13:41:12;;;;;;;3.20;0.90;;;;;;;;;;4959473;28;20033;-83
2023/04/15 13:43:37;;;;;;;1.48;0.68;;;;;;;;;;4960166;28;20038;-85
2023/04/15 13:46:02;;;;;;;3.37;1.03;;;;;;;;;;4939989;28;20075;-84
2023/04/15 13:48:28;;;;;;;1.48;0.65;;;;;;;;;;4934195;28;20676;-85
2023/04/15 13:50:53;;;;;;;1.63;0.70;;;;;;;;;;4929594;28;20034;-86
2023/04/15 13:53:19;;;;;;;2.13;0.80;;;;;;;;;;4960761;28;20037;-83
2023/04/15 13:55:44;;;;;;;1.35;0.63;;;;;;;;;;4928944;28;20038;-83
2023/04/15 13:58:10;;;;;;;1.10;0.60;;;;;;;;;;4936988;29;20039;-85
2023/04/15 14:00:35;;;;;;;3.50;0.75;;;;;;;;;;4923102;29;21118;-86
2023/04/15 14:03:00;;;;;;;1.75;0.68;;;;;;;;;;4941564;28;20025;-86
2023/04/15 14:05:26;;;;;;;1.02;0.63;;;;;;;;;;4960020;28;20102;-85
2023/04/15 14:07:51;;;;;;;1.90;1.00;;;;;;;;;;4930045;28;20031;-83
2023/04/15 14:10:16;;;;;;;1.25;0.50;;;;;;;;;;4960538;28;20309;-81
2023/04/15 14:12:42;;;;;;;2.83;1.05;;;;;;;;;;4946074;28;20031;-76
2023/04/15 14:15:07;;;;;;;1.48;0.65;;;;;;;;;;4960436;28;20025;-76
2023/04/15 14:17:32;;;;;;;2.08;0.60;;;;;;;;;;4959560;28;20019;-77
2023/04/15 14:19:58;;;;;;;5.47;0.80;;;;;;;;;;4960347;28;20093;-77
2023/04/15 14:22:23;;;;;;;2.50;0.52;;;;;;;;;;4960301;28;20389;-79
2023/04/15 14:24:48;;;;;;;2.15;0.60;;;;;;;;;;4959874;28;20102;-78
2023/04/15 14:27:14;;;;;;;2.65;0.57;;;;;;;;;;4959857;28;20023;-78
2023/04/15 14:29:39;;;;;;;1.98;0.88;;;;;;;;;;4942354;28;20026;-77
2023/04/15 14:32:05;;;;;;;2.85;0.85;;;;;;;;;;4957114;28;20043;-78
2023/04/15 14:34:31;;;;;;;3.13;0.60;;;;;;;;;;4930098;28;20033;-77
2023/04/15 14:36:56;;;;;;;2.55;0.80;;;;;;;;;;4956537;28;20484;-79
2023/04/15 14:39:21;;;;;;;2.42;1.02;;;;;;;;;;4959489;28;20038;-78
2023/04/15 14:41:47;;;;;;;3.83;0.75;;;;;;;;;;4959478;28;20019;-80